Accueil
METAR-TAF:

METAR-TAF

Aéroports :

Aéroport de Liège

Liège, Belgique

latitude: 50-39N, longitude: 005-27E, altitude: 186 m

Observation

Le bulletin a été fait il y a 45 minutes, à 03:50 UTC
Vent 2 kt de ouest
Température 10°C
Humidité 87%
Pression 1026 hPa
Visibilité 10 km ou plus
pas de nuages en-dessous de 1500 mètres et pas de cumulonimbus.

METAR: EBLG 060350Z 28002KT CAVOK 10/08 Q1026 NOSIG

Heure: 06:35 (04:35 UTC)

Prévision

Le bulletin a été fait il y a 5 heures et 35 minutes, à 23:00 UTC
Prévision valable du 06 à 00 UTC au 07 à 06 UTC
Vent 3 kt de ouest/nord-ouest
Visibilité 10 km ou plus
pas de nuages en-dessous de 1500 mètres et pas de cumulonimbus.
Probabilité 30% :
Temporairement
du 07 à 04 UTC au 07 à 06 UTC
Nuages fragmentés à une hauteur de 1400 ft

TAF: EBLG 052300Z 0600/0706 30003KT CAVOK PROB30 TEMPO 0704/0706 BKN014

Observations et prévisions météorologiques de plus de 4000 aéroports (messages METAR et TAF).

Les stations disponibles sont représentées par des disques jaunes et rouges sur la carte.

Passer la souris dessus pour voir le nom de la station.

Cliquer dessus pour voir les observations et prévisions météorologiques.

Pour changer de carte: cliquez sur les boutons verts avec une croix noire pour zoomer, sur le bouton vert avec un tiret pour effectuer un zoom arrière, ou sur les flèches vertes pour les cartes adjacentes.


METAR-TAF: